sensor_id;sensor_type;location;lat;lon;timestamp;pressure;altitude;pressure_sealevel;temperature;humidity
67377;BME280;54261;46.086;6.588;2023-05-01T00:03:36;92417.41;;;12.85;44.18
67377;BME280;54261;46.086;6.588;2023-05-01T00:08:38;92414.09;;;12.79;44.55
67377;BME280;54261;46.086;6.588;2023-05-01T00:13:40;92394.44;;;12.11;45.34
67377;BME280;54261;46.086;6.588;2023-05-01T00:18:42;92375.38;;;12.71;43.97
67377;BME280;54261;46.086;6.588;2023-05-01T00:23:44;92395.53;;;12.32;44.21
67377;BME280;54261;46.086;6.588;2023-05-01T00:28:46;92397.13;;;12.79;43.70
67377;BME280;54261;46.086;6.588;2023-05-01T00:33:48;92396.63;;;12.85;43.45
67377;BME280;54261;46.086;6.588;2023-05-01T00:38:50;92391.13;;;12.94;43.22
67377;BME280;54261;46.086;6.588;2023-05-01T00:43:52;92391.78;;;11.81;44.74
67377;BME280;54261;46.086;6.588;2023-05-01T00:48:56;92387.66;;;12.48;44.26
67377;BME280;54261;46.086;6.588;2023-05-01T00:53:59;92370.38;;;11.94;45.01
67377;BME280;54261;46.086;6.588;2023-05-01T00:59:01;92345.13;;;12.41;44.02
67377;BME280;54261;46.086;6.588;2023-05-01T01:04:03;92361.91;;;12.71;43.70
67377;BME280;54261;46.086;6.588;2023-05-01T01:14:39;92343.28;;;12.79;42.77
67377;BME280;54261;46.086;6.588;2023-05-01T01:20:43;92348.28;;;12.89;42.65
67377;BME280;54261;46.086;6.588;2023-05-01T01:26:22;92359.72;;;12.86;42.07
67377;BME280;54261;46.086;6.588;2023-05-01T01:36:05;92348.03;;;12.94;42.68
67377;BME280;54261;46.086;6.588;2023-05-01T01:41:15;92350.97;;;13.02;42.32
67377;BME280;54261;46.086;6.588;2023-05-01T01:46:19;92344.59;;;13.06;42.28
67377;BME280;54261;46.086;6.588;2023-05-01T01:51:23;92338.06;;;13.07;42.06
67377;BME280;54261;46.086;6.588;2023-05-01T01:56:28;92356.13;;;13.19;41.81
67377;BME280;54261;46.086;6.588;2023-05-01T02:01:33;92310.94;;;12.54;42.11
67377;BME280;54261;46.086;6.588;2023-05-01T02:06:37;92346.78;;;12.33;43.22
67377;BME280;54261;46.086;6.588;2023-05-01T02:11:40;92325.03;;;12.38;43.71
67377;BME280;54261;46.086;6.588;2023-05-01T02:16:43;92355.28;;;12.69;43.05
67377;BME280;54261;46.086;6.588;2023-05-01T02:21:47;92357.81;;;12.99;42.67
67377;BME280;54261;46.086;6.588;2023-05-01T02:27:03;92354.09;;;11.90;44.12
67377;BME280;54261;46.086;6.588;2023-05-01T02:32:07;92279.47;;;12.08;43.20
67377;BME280;54261;46.086;6.588;2023-05-01T02:37:10;92345.97;;;12.66;42.83
67377;BME280;54261;46.086;6.588;2023-05-01T02:42:15;92328.47;;;12.60;43.13
67377;BME280;54261;46.086;6.588;2023-05-01T02:47:19;92348.53;;;12.16;43.74
67377;BME280;54261;46.086;6.588;2023-05-01T02:52:23;92353.78;;;12.47;43.80
67377;BME280;54261;46.086;6.588;2023-05-01T02:57:35;92349.94;;;12.35;43.83
67377;BME280;54261;46.086;6.588;2023-05-01T03:02:37;92319.25;;;12.15;43.67
67377;BME280;54261;46.086;6.588;2023-05-01T03:07:39;92304.91;;;11.90;44.01
67377;BME280;54261;46.086;6.588;2023-05-01T03:12:41;92292.94;;;11.66;44.44
67377;BME280;54261;46.086;6.588;2023-05-01T03:17:43;92314.47;;;12.21;44.14
67377;BME280;54261;46.086;6.588;2023-05-01T03:22:44;92306.78;;;12.44;43.76
67377;BME280;54261;46.086;6.588;2023-05-01T03:27:46;92304.03;;;12.19;43.67
67377;BME280;54261;46.086;6.588;2023-05-01T03:32:50;92307.75;;;12.27;43.40
67377;BME280;54261;46.086;6.588;2023-05-01T03:37:59;92299.16;;;12.46;43.03
67377;BME280;54261;46.086;6.588;2023-05-01T03:43:19;92307.91;;;12.43;43.34
67377;BME280;54261;46.086;6.588;2023-05-01T03:48:21;92308.28;;;12.20;43.12
67377;BME280;54261;46.086;6.588;2023-05-01T03:53:24;92284.19;;;11.26;44.05
67377;BME280;54261;46.086;6.588;2023-05-01T03:58:26;92294.31;;;10.04;46.51
67377;BME280;54261;46.086;6.588;2023-05-01T04:03:28;92294.19;;;10.87;45.44
67377;BME280;54261;46.086;6.588;2023-05-01T04:08:30;92316.59;;;11.51;44.64
67377;BME280;54261;46.086;6.588;2023-05-01T04:13:32;92316.91;;;10.51;48.57
67377;BME280;54261;46.086;6.588;2023-05-01T04:18:35;92316.16;;;11.19;45.95
67377;BME280;54261;46.086;6.588;2023-05-01T04:23:37;92318.88;;;9.97;47.56
67377;BME280;54261;46.086;6.588;2023-05-01T04:28:39;92318.31;;;8.98;49.58
67377;BME280;54261;46.086;6.588;2023-05-01T04:33:43;92316.97;;;7.83;52.18
67377;BME280;54261;46.086;6.588;2023-05-01T04:38:46;92328.19;;;9.29;48.49
67377;BME280;54261;46.086;6.588;2023-05-01T04:43:48;92304.72;;;9.44;49.15
67377;BME280;54261;46.086;6.588;2023-05-01T04:48:52;92320.38;;;10.90;47.38
67377;BME280;54261;46.086;6.588;2023-05-01T04:53:54;92337.38;;;11.12;45.82
67377;BME280;54261;46.086;6.588;2023-05-01T04:58:59;92326.09;;;11.70;45.02
67377;BME280;54261;46.086;6.588;2023-05-01T05:04:04;92339.00;;;11.77;44.80
67377;BME280;54261;46.086;6.588;2023-05-01T05:09:07;92336.50;;;9.19;49.06
67377;BME280;54261;46.086;6.588;2023-05-01T05:14:09;92343.66;;;9.68;48.67
67377;BME280;54261;46.086;6.588;2023-05-01T05:19:11;92353.44;;;8.56;51.46
67377;BME280;54261;46.086;6.588;2023-05-01T05:24:16;92355.28;;;9.54;48.95
67377;BME280;54261;46.086;6.588;2023-05-01T05:29:18;92354.94;;;8.80;48.94
67377;BME280;54261;46.086;6.588;2023-05-01T05:34:20;92344.56;;;8.78;50.02
67377;BME280;54261;46.086;6.588;2023-05-01T05:39:22;92337.63;;;9.35;48.49
67377;BME280;54261;46.086;6.588;2023-05-01T05:44:24;92344.53;;;9.10;50.04
67377;BME280;54261;46.086;6.588;2023-05-01T05:49:26;92330.69;;;9.17;49.35
67377;BME280;54261;46.086;6.588;2023-05-01T05:54:28;92350.34;;;9.12;50.25
67377;BME280;54261;46.086;6.588;2023-05-01T05:59:30;92344.72;;;10.28;46.94
67377;BME280;54261;46.086;6.588;2023-05-01T06:04:33;92346.59;;;11.53;45.63
67377;BME280;54261;46.086;6.588;2023-05-01T06:09:35;92310.13;;;10.92;45.85
67377;BME280;54261;46.086;6.588;2023-05-01T06:14:37;92320.41;;;11.50;44.71
67377;BME280;54261;46.086;6.588;2023-05-01T06:19:39;92327.09;;;11.14;44.27
67377;BME280;54261;46.086;6.588;2023-05-01T06:24:44;92288.50;;;11.82;43.43
67377;BME280;54261;46.086;6.588;2023-05-01T06:29:46;92312.88;;;8.63;48.93
67377;BME280;54261;46.086;6.588;2023-05-01T06:34:48;92335.34;;;11.09;46.05
67377;BME280;54261;46.086;6.588;2023-05-01T06:39:50;92320.25;;;11.89;44.66
67377;BME280;54261;46.086;6.588;2023-05-01T06:44:52;92348.91;;;8.65;49.55
67377;BME280;54261;46.086;6.588;2023-05-01T06:49:55;92357.75;;;8.75;51.33
67377;BME280;54261;46.086;6.588;2023-05-01T06:54:57;92367.41;;;8.21;52.74
67377;BME280;54261;46.086;6.588;2023-05-01T07:00:00;92378.34;;;5.87;60.29
67377;BME280;54261;46.086;6.588;2023-05-01T07:05:02;92398.81;;;4.61;66.24
67377;BME280;54261;46.086;6.588;2023-05-01T07:10:04;92398.53;;;8.49;57.71
67377;BME280;54261;46.086;6.588;2023-05-01T07:15:07;92397.22;;;7.41;57.05
67377;BME280;54261;46.086;6.588;2023-05-01T07:20:09;92393.94;;;9.04;55.24
67377;BME280;54261;46.086;6.588;2023-05-01T07:25:12;92414.53;;;7.94;55.06
67377;BME280;54261;46.086;6.588;2023-05-01T07:30:14;92416.38;;;9.17;51.73
67377;BME280;54261;46.086;6.588;2023-05-01T07:35:16;92411.03;;;8.62;53.28
67377;BME280;54261;46.086;6.588;2023-05-01T07:40:18;92419.97;;;8.81;55.42
67377;BME280;54261;46.086;6.588;2023-05-01T07:45:20;92393.59;;;9.37;52.87
67377;BME280;54261;46.086;6.588;2023-05-01T07:50:22;92397.88;;;5.39;64.55
67377;BME280;54261;46.086;6.588;2023-05-01T07:55:25;92401.00;;;7.77;59.88
67377;BME280;54261;46.086;6.588;2023-05-01T08:00:28;92439.03;;;8.33;57.37
67377;BME280;54261;46.086;6.588;2023-05-01T08:05:30;92431.97;;;8.60;58.26
67377;BME280;54261;46.086;6.588;2023-05-01T08:10:34;92425.00;;;7.54;56.37
67377;BME280;54261;46.086;6.588;2023-05-01T08:15:37;92445.53;;;8.18;56.47
67377;BME280;54261;46.086;6.588;2023-05-01T08:20:39;92442.78;;;8.87;55.05
67377;BME280;54261;46.086;6.588;2023-05-01T08:25:41;92445.25;;;8.06;59.24
67377;BME280;54261;46.086;6.588;2023-05-01T08:30:43;92452.84;;;9.04;54.21
67377;BME280;54261;46.086;6.588;2023-05-01T08:35:47;92451.78;;;8.82;53.62
67377;BME280;54261;46.086;6.588;2023-05-01T08:40:51;92442.53;;;7.83;57.28
67377;BME280;54261;46.086;6.588;2023-05-01T08:46:00;92446.59;;;6.68;61.02
67377;BME280;54261;46.086;6.588;2023-05-01T08:51:04;92426.63;;;6.66;62.21
67377;BME280;54261;46.086;6.588;2023-05-01T08:56:09;92442.31;;;6.87;60.98
67377;BME280;54261;46.086;6.588;2023-05-01T09:01:15;92451.59;;;8.33;59.93
67377;BME280;54261;46.086;6.588;2023-05-01T09:06:17;92415.75;;;6.62;60.16
67377;BME280;54261;46.086;6.588;2023-05-01T09:11:21;92438.75;;;6.91;63.75
67377;BME280;54261;46.086;6.588;2023-05-01T09:16:23;92457.44;;;7.05;60.00
67377;BME280;54261;46.086;6.588;2023-05-01T09:21:26;92456.94;;;8.33;57.78
67377;BME280;54261;46.086;6.588;2023-05-01T09:26:29;92459.63;;;8.56;56.22
